Time;durP1;ratioP1;P1;durP2;ratioP2;P2;SDS_P1;SDS_P2;PMS_P1;PMS_P2;Temp;Humidity;BMP_temperature;BMP_pressure;BME280_temperature;BME280_humidity;BME280_pressure;Samples;Min_cycle;Max_cycle;Signal;HPM_P1;HPM_P2
2021/04/12 00:00:32;;;;;;;3.17;2.88;;;7.40;56.60;;;;;;1494111;39;20114;-60
2021/04/12 00:02:01;;;;;;;3.03;2.72;;;7.40;56.60;;;;;;1493130;39;20058;-60
2021/04/12 00:03:28;;;;;;;4.07;3.03;;;7.40;56.50;;;;;;1493360;39;20054;-60
2021/04/12 00:05:10;;;;;;;3.15;2.67;;;7.40;56.60;;;;;;1494809;39;20038;-60
2021/04/12 00:06:39;;;;;;;3.40;2.63;;;7.40;56.80;;;;;;1493302;39;20058;-60
2021/04/12 00:08:23;;;;;;;3.30;3.00;;;7.40;56.80;;;;;;1493341;39;20047;-60
2021/04/12 00:09:54;;;;;;;2.97;2.78;;;7.40;56.80;;;;;;1493273;39;20145;-60
2021/04/12 00:11:31;;;;;;;3.63;2.97;;;7.40;56.70;;;;;;1492729;39;20035;-60
2021/04/12 00:13:15;;;;;;;3.05;2.80;;;7.30;56.70;;;;;;1491574;39;20360;-60
2021/04/12 00:14:39;;;;;;;5.15;3.35;;;7.40;56.80;;;;;;1495819;39;20370;-60
2021/04/12 00:16:16;;;;;;;5.95;3.35;;;7.30;56.70;;;;;;1492280;39;20028;-59
2021/04/12 00:17:43;;;;;;;5.28;3.42;;;7.30;56.70;;;;;;1493256;39;20063;-59
2021/04/12 00:19:10;;;;;;;6.22;3.78;;;7.30;56.70;;;;;;1492943;39;20391;-59
2021/04/12 00:20:59;;;;;;;3.92;3.63;;;7.30;56.70;;;;;;1492390;39;20023;-59
2021/04/12 00:22:33;;;;;;;4.38;3.40;;;7.30;56.80;;;;;;1493603;39;20052;-58
2021/04/12 00:23:59;;;;;;;4.15;3.33;;;7.30;56.80;;;;;;1493359;39;20067;-58
2021/04/12 00:25:37;;;;;;;3.92;3.63;;;7.30;56.80;;;;;;1493084;39;20027;-59
2021/04/12 00:27:10;;;;;;;5.60;3.70;;;7.30;56.90;;;;;;1494145;39;20028;-59
2021/04/12 00:28:37;;;;;;;5.47;4.20;;;7.20;56.80;;;;;;1494144;39;20027;-60
2021/04/12 00:30:04;;;;;;;5.00;4.18;;;7.20;56.80;;;;;;1492485;39;20035;-58
2021/04/12 00:31:44;;;;;;;4.90;3.72;;;7.20;56.80;;;;;;1493200;39;20055;-59
2021/04/12 00:33:23;;;;;;;5.20;4.07;;;7.20;56.90;;;;;;1495390;39;20043;-59
2021/04/12 00:35:06;;;;;;;5.13;4.40;;;7.20;56.90;;;;;;1492808;39;20047;-59
2021/04/12 00:36:36;;;;;;;7.43;4.60;;;7.20;56.80;;;;;;1492745;39;20084;-59
2021/04/12 00:38:18;;;;;;;6.10;4.75;;;7.20;56.80;;;;;;1492733;39;20032;-59
2021/04/12 00:39:57;;;;;;;8.55;4.90;;;7.10;57.10;;;;;;1492964;39;20462;-60
2021/04/12 00:41:37;;;;;;;5.00;4.47;;;7.10;57.00;;;;;;1496205;39;20269;-60
2021/04/12 00:43:07;;;;;;;6.20;4.13;;;7.20;56.90;;;;;;1492761;39;20046;-60
2021/04/12 00:44:42;;;;;;;5.93;4.63;;;7.10;56.90;;;;;;1494161;39;20035;-60
2021/04/12 00:46:37;;;;;;;4.75;4.35;;;7.10;57.10;;;;;;1492069;39;20032;-60
2021/04/12 00:48:04;;;;;;;4.30;3.90;;;7.10;57.20;;;;;;1493463;39;20125;-59
2021/04/12 00:49:43;;;;;;;5.43;4.90;;;7.10;57.10;;;;;;1494506;39;20083;-59
2021/04/12 00:51:21;;;;;;;7.05;4.50;;;7.10;57.10;;;;;;1492722;39;20097;-59
2021/04/12 00:52:51;;;;;;;5.20;4.30;;;7.00;57.10;;;;;;1492745;39;20019;-60
2021/04/12 00:54:45;;;;;;;7.63;4.82;;;7.00;57.10;;;;;;1495040;39;20057;-60
2021/04/12 00:56:23;;;;;;;4.75;3.78;;;7.00;57.30;;;;;;1492566;39;20027;-60
2021/04/12 00:57:43;;;;;;;4.57;4.10;;;7.00;57.20;;;;;;1494624;39;20057;-60
2021/04/12 00:59:12;;;;;;;5.35;4.75;;;7.00;57.10;;;;;;1494703;39;20046;-60
2021/04/12 01:00:41;;;;;;;6.50;4.70;;;7.00;57.20;;;;;;1493127;39;20068;-59
2021/04/12 01:02:32;;;;;;;4.63;4.22;;;7.00;57.30;;;;;;1490158;39;20353;-61
2021/04/12 01:04:27;;;;;;;6.40;3.83;;;6.90;57.30;;;;;;1494813;39;20423;-60
2021/04/12 01:06:25;;;;;;;4.13;3.35;;;6.90;57.30;;;;;;1493272;39;20031;-61
2021/04/12 01:07:54;;;;;;;6.40;3.90;;;6.90;57.30;;;;;;1492943;39;20038;-59
2021/04/12 01:10:11;;;;;;;4.20;3.63;;;6.90;57.20;;;;;;1495450;39;20131;-59
2021/04/12 01:12:09;;;;;;;4.32;3.67;;;6.90;57.40;;;;;;1492828;39;20055;-59
2021/04/12 01:13:43;;;;;;;3.90;3.60;;;6.90;57.30;;;;;;1492915;39;20059;-59
2021/04/12 01:15:07;;;;;;;3.83;3.53;;;6.80;57.10;;;;;;1493413;39;20028;-59
2021/04/12 01:16:48;;;;;;;4.22;3.67;;;6.90;57.20;;;;;;1493209;39;20034;-59
2021/04/12 01:18:28;;;;;;;5.30;3.67;;;6.80;57.30;;;;;;1493378;39;20051;-59
2021/04/12 01:20:07;;;;;;;4.43;3.92;;;6.80;57.20;;;;;;1494837;39;20035;-60
2021/04/12 01:22:26;;;;;;;3.50;3.30;;;6.80;57.50;;;;;;1493098;39;20036;-59
2021/04/12 01:24:16;;;;;;;3.63;3.30;;;6.80;57.60;;;;;;1481285;40;20887;-60
2021/04/12 01:26:14;;;;;;;4.38;3.55;;;6.80;57.50;;;;;;1483339;39;20017;-60
2021/04/12 01:27:49;;;;;;;3.50;3.17;;;6.80;57.60;;;;;;1494222;39;20380;-60
2021/04/12 01:29:48;;;;;;;3.45;2.80;;;6.70;57.40;;;;;;1494507;39;20068;-59
2021/04/12 01:31:28;;;;;;;3.55;3.25;;;6.70;57.60;;;;;;1492852;39;20035;-59
2021/04/12 01:33:32;;;;;;;4.03;3.28;;;6.70;57.70;;;;;;1495341;39;20107;-59
2021/04/12 01:35:06;;;;;;;4.00;3.70;;;6.70;57.80;;;;;;1493415;39;20111;-59
2021/04/12 01:36:43;;;;;;;4.82;3.22;;;6.70;57.80;;;;;;1492003;39;20079;-60
2021/04/12 01:38:22;;;;;;;3.50;3.20;;;6.70;57.90;;;;;;1493197;39;20039;-60
2021/04/12 01:39:57;;;;;;;4.60;3.35;;;6.60;58.00;;;;;;1493245;39;20391;-59
2021/04/12 01:41:37;;;;;;;5.03;3.10;;;6.60;57.90;;;;;;1494303;39;20035;-60
2021/04/12 01:43:18;;;;;;;4.22;3.63;;;6.60;57.90;;;;;;1495345;39;20143;-60
2021/04/12 01:44:47;;;;;;;4.32;2.95;;;6.60;57.90;;;;;;1496359;39;20318;-60
2021/04/12 01:46:20;;;;;;;6.50;3.42;;;6.60;57.90;;;;;;1496839;39;20118;-60
2021/04/12 01:47:41;;;;;;;3.75;2.90;;;6.60;57.90;;;;;;1497323;39;20035;-60
2021/04/12 01:49:06;;;;;;;3.55;2.95;;;6.60;57.90;;;;;;1494074;39;20028;-60
2021/04/12 01:50:37;;;;;;;3.30;2.83;;;6.60;58.00;;;;;;1494429;39;20026;-62
2021/04/12 01:52:26;;;;;;;5.43;3.17;;;6.60;58.20;;;;;;1495725;39;20035;-60
2021/04/12 01:54:15;;;;;;;3.78;2.90;;;6.60;58.20;;;;;;1494243;39;20035;-62
2021/04/12 01:55:48;;;;;;;4.43;3.20;;;6.60;58.20;;;;;;1496725;39;20039;-58
2021/04/12 01:57:25;;;;;;;3.13;2.80;;;6.60;58.20;;;;;;1493698;39;20039;-60
2021/04/12 01:59:06;;;;;;;3.28;2.92;;;6.60;58.00;;;;;;1493262;39;20039;-59
2021/04/12 02:00:49;;;;;;;3.83;2.80;;;6.60;58.00;;;;;;1493150;39;20333;-59
2021/04/12 02:02:13;;;;;;;3.40;3.10;;;6.60;58.20;;;;;;1493601;39;20356;-59
2021/04/12 02:04:17;;;;;;;3.42;3.10;;;6.60;58.10;;;;;;1492534;39;20038;-59
2021/04/12 02:06:00;;;;;;;5.00;3.00;;;6.60;58.40;;;;;;1493462;39;20620;-59
2021/04/12 02:07:27;;;;;;;3.22;2.92;;;6.60;58.30;;;;;;1493548;39;20027;-59
2021/04/12 02:09:24;;;;;;;4.30;3.22;;;6.60;58.20;;;;;;1492945;39;20127;-60
2021/04/12 02:11:11;;;;;;;3.55;3.17;;;6.60;58.40;;;;;;1482891;39;20026;-60
2021/04/12 02:12:56;;;;;;;3.60;3.15;;;6.60;58.60;;;;;;1491628;39;20046;-60
2021/04/12 02:14:54;;;;;;;2.90;2.70;;;6.60;58.50;;;;;;1492732;39;20438;-60
2021/04/12 02:16:31;;;;;;;4.57;2.88;;;6.60;58.40;;;;;;1492911;39;20039;-60
2021/04/12 02:18:30;;;;;;;3.10;2.80;;;6.60;58.30;;;;;;1492893;39;20344;-60
2021/04/12 02:20:18;;;;;;;2.85;2.65;;;6.60;58.40;;;;;;1492664;39;20027;-60
2021/04/12 02:22:28;;;;;;;4.38;2.85;;;6.60;58.30;;;;;;1493089;39;20023;-59
2021/04/12 02:24:37;;;;;;;3.60;3.28;;;6.60;58.30;;;;;;1494181;39;20384;-59
2021/04/12 02:26:31;;;;;;;5.30;2.92;;;6.60;58.20;;;;;;1475466;40;20091;-60
2021/04/12 02:27:55;;;;;;;4.18;3.08;;;6.60;58.10;;;;;;1472700;40;20021;-59
2021/04/12 02:29:43;;;;;;;4.50;2.90;;;6.60;58.00;;;;;;1475604;40;20115;-59
2021/04/12 02:31:08;;;;;;;3.25;3.05;;;6.50;58.10;;;;;;1479650;39;20033;-59
2021/04/12 02:32:51;;;;;;;4.38;3.28;;;6.50;58.00;;;;;;1492503;39;20054;-59
2021/04/12 02:34:30;;;;;;;5.00;2.97;;;6.50;58.30;;;;;;1493099;39;20133;-59
2021/04/12 02:36:06;;;;;;;3.13;2.83;;;6.50;58.30;;;;;;1492452;39;20067;-58
2021/04/12 02:37:30;;;;;;;3.83;3.42;;;6.40;58.20;;;;;;1493476;39;20031;-59
2021/04/12 02:39:16;;;;;;;3.53;3.00;;;6.50;58.30;;;;;;1493517;39;20081;-59
2021/04/12 02:40:55;;;;;;;5.40;3.00;;;6.50;58.30;;;;;;1493866;39;20015;-61
2021/04/12 02:42:39;;;;;;;3.65;2.97;;;6.50;58.40;;;;;;1491915;39;20106;-59
2021/04/12 02:44:18;;;;;;;3.75;2.95;;;6.40;58.20;;;;;;1492758;39;20035;-60
2021/04/12 02:46:16;;;;;;;4.40;2.88;;;6.40;58.20;;;;;;1495296;39;20618;-59
2021/04/12 02:47:59;;;;;;;4.07;2.95;;;6.40;58.20;;;;;;1492969;39;20355;-60
2021/04/12 02:49:49;;;;;;;3.80;3.05;;;6.40;58.20;;;;;;1495087;39;20035;-60
2021/04/12 02:51:37;;;;;;;4.18;3.05;;;6.40;58.10;;;;;;1493836;39;20076;-60
2021/04/12 02:53:25;;;;;;;3.80;3.05;;;6.40;58.20;;;;;;1481661;39;20036;-60
2021/04/12 02:55:20;;;;;;;3.22;2.90;;;6.30;58.00;;;;;;1494340;39;20022;-60
2021/04/12 02:57:12;;;;;;;3.33;2.90;;;6.30;58.10;;;;;;1493479;39;20040;-59
2021/04/12 02:59:03;;;;;;;3.40;3.10;;;6.30;58.10;;;;;;1483108;39;20215;-59
2021/04/12 03:00:46;;;;;;;4.45;3.20;;;6.30;58.20;;;;;;1493530;39;20035;-60
2021/04/12 03:02:43;;;;;;;3.92;2.85;;;6.30;58.10;;;;;;1493528;39;20039;-59
2021/04/12 03:04:27;;;;;;;5.82;3.08;;;6.20;58.30;;;;;;1496942;39;20288;-59
2021/04/12 03:06:19;;;;;;;3.80;3.45;;;6.20;58.30;;;;;;1493171;39;20043;-59
2021/04/12 03:08:07;;;;;;;4.07;3.38;;;6.20;58.30;;;;;;1492800;39;20042;-59
2021/04/12 03:09:43;;;;;;;3.47;3.17;;;6.10;58.20;;;;;;1493182;39;20024;-59
2021/04/12 03:11:32;;;;;;;3.38;3.08;;;6.10;58.40;;;;;;1493508;39;20035;-59
2021/04/12 03:13:08;;;;;;;5.45;3.40;;;6.10;58.40;;;;;;1492396;39;20348;-59
2021/04/12 03:15:10;;;;;;;5.40;3.38;;;6.10;58.40;;;;;;1492824;39;20088;-59
2021/04/12 03:16:50;;;;;;;3.10;2.90;;;6.10;58.70;;;;;;1482018;39;20046;-60
2021/04/12 03:18:33;;;;;;;4.55;3.67;;;6.10;58.40;;;;;;1494312;39;20277;-60
2021/04/12 03:20:38;;;;;;;4.15;3.63;;;6.00;58.60;;;;;;1492722;39;20043;-60
2021/04/12 03:22:17;;;;;;;4.32;3.35;;;6.10;58.80;;;;;;1493139;39;20123;-60
2021/04/12 03:23:47;;;;;;;6.80;3.40;;;6.00;58.60;;;;;;1496876;39;20038;-59
2021/04/12 03:25:24;;;;;;;5.70;3.75;;;6.00;58.70;;;;;;1493842;39;20031;-59
2021/04/12 03:26:51;;;;;;;3.53;3.20;;;6.00;58.80;;;;;;1493322;39;20259;-60
2021/04/12 03:28:45;;;;;;;5.88;3.47;;;6.00;58.80;;;;;;1493986;39;20040;-60
2021/04/12 03:30:18;;;;;;;4.03;3.63;;;6.00;58.90;;;;;;1493205;39;20031;-59
2021/04/12 03:32:20;;;;;;;5.22;3.47;;;6.00;58.80;;;;;;1494023;39;20483;-60
2021/04/12 03:33:58;;;;;;;5.45;3.55;;;6.00;59.20;;;;;;1486950;39;20062;-60
2021/04/12 03:35:41;;;;;;;3.63;3.30;;;6.00;59.10;;;;;;1493267;39;20032;-60
2021/04/12 03:37:31;;;;;;;7.15;3.90;;;6.00;58.90;;;;;;1493629;39;20254;-60
2021/04/12 03:39:08;;;;;;;4.25;3.85;;;6.00;59.20;;;;;;1494303;39;20032;-60
2021/04/12 03:40:38;;;;;;;3.83;3.50;;;6.00;59.00;;;;;;1493068;39;20058;-60
2021/04/12 03:42:38;;;;;;;4.50;3.95;;;6.00;59.00;;;;;;1493300;39;20032;-60
2021/04/12 03:44:35;;;;;;;11.00;3.80;;;6.00;59.20;;;;;;1493521;39;20031;-60
2021/04/12 03:46:40;;;;;;;4.35;3.72;;;6.00;59.00;;;;;;1490899;39;20058;-60
2021/04/12 03:48:25;;;;;;;4.35;3.70;;;5.90;58.90;;;;;;1477496;40;20122;-59
2021/04/12 03:49:49;;;;;;;4.55;3.60;;;5.90;58.90;;;;;;1492853;39;20172;-59
2021/04/12 03:51:22;;;;;;;3.90;3.50;;;5.90;58.80;;;;;;1495721;39;20070;-60
2021/04/12 03:52:46;;;;;;;5.03;4.40;;;6.00;59.00;;;;;;1495375;39;20032;-60
2021/04/12 03:54:36;;;;;;;6.00;4.50;;;5.90;59.40;;;;;;1495269;39;20023;-60
2021/04/12 03:56:00;;;;;;;;;;;5.90;59.10;;;;;;1496396;39;20045;-60
2021/04/12 03:57:35;;;;;;;3.75;3.15;;;5.90;59.20;;;;;;1495313;39;19935;-60
2021/04/12 03:59:16;;;;;;;4.72;4.32;;;5.90;58.80;;;;;;1493915;39;20031;-59
2021/04/12 04:00:45;;;;;;;6.05;4.43;;;5.80;59.00;;;;;;1494453;39;20091;-60
2021/04/12 04:02:43;;;;;;;4.95;4.50;;;5.90;58.90;;;;;;1494442;39;20111;-60
2021/04/12 04:04:20;;;;;;;6.43;4.20;;;5.90;59.10;;;;;;1492668;39;20047;-60
2021/04/12 04:05:54;;;;;;;7.55;4.55;;;5.80;58.90;;;;;;1495079;39;20031;-61
2021/04/12 04:07:39;;;;;;;7.00;4.30;;;5.80;59.00;;;;;;1494654;39;20068;-60
2021/04/12 04:09:32;;;;;;;5.43;4.32;;;5.80;59.20;;;;;;1493597;39;20050;-60
2021/04/12 04:11:24;;;;;;;4.22;3.83;;;5.80;59.00;;;;;;1492681;39;20320;-60
2021/04/12 04:13:22;;;;;;;6.45;4.57;;;5.80;59.20;;;;;;1495058;39;20039;-60
2021/04/12 04:15:21;;;;;;;7.97;4.38;;;5.70;59.20;;;;;;1495104;39;20019;-59
2021/04/12 04:17:07;;;;;;;5.07;4.40;;;5.70;59.20;;;;;;1492221;39;20035;-59
2021/04/12 04:18:56;;;;;;;5.47;4.50;;;5.70;59.30;;;;;;1493996;39;20108;-60
2021/04/12 04:20:30;;;;;;;5.85;4.28;;;5.70;59.30;;;;;;1494176;39;20110;-59
2021/04/12 04:22:03;;;;;;;6.57;4.32;;;5.70;59.30;;;;;;1495116;39;20071;-60
2021/04/12 04:23:36;;;;;;;5.47;4.50;;;5.70;59.20;;;;;;1494199;39;20023;-60
2021/04/12 04:25:18;;;;;;;5.78;5.25;;;5.70;59.30;;;;;;1493348;39;20057;-60
2021/04/12 04:27:10;;;;;;;6.45;4.53;;;5.70;59.20;;;;;;1494962;39;21614;-59
2021/04/12 04:28:46;;;;;;;4.43;4.00;;;5.70;59.30;;;;;;1498507;39;20054;-60
2021/04/12 04:30:41;;;;;;;6.72;4.50;;;5.70;59.50;;;;;;1494337;39;20112;-60
2021/04/12 04:32:37;;;;;;;4.88;4.32;;;5.60;59.30;;;;;;1494380;39;20035;-60
2021/04/12 04:34:04;;;;;;;6.18;4.65;;;5.60;59.40;;;;;;1497273;39;20271;-60
2021/04/12 04:35:51;;;;;;;6.75;5.05;;;5.60;59.20;;;;;;1494704;39;20161;-60
2021/04/12 04:37:29;;;;;;;5.28;4.57;;;5.60;59.50;;;;;;1495589;39;20565;-60
2021/04/12 04:39:43;;;;;;;5.35;4.82;;;5.60;59.40;;;;;;1494519;39;20031;-60
2021/04/12 04:41:33;;;;;;;4.88;4.38;;;5.60;59.70;;;;;;1479702;40;20037;-59
2021/04/12 04:43:24;;;;;;;6.00;4.70;;;5.60;59.40;;;;;;1489625;39;20092;-59
2021/04/12 04:45:05;;;;;;;4.53;4.13;;;5.60;59.60;;;;;;1497182;39;20051;-57
2021/04/12 04:46:48;;;;;;;5.13;4.68;;;5.60;59.50;;;;;;1497480;39;20449;-59
2021/04/12 04:48:39;;;;;;;5.20;4.70;;;5.60;59.60;;;;;;1494336;39;20038;-59
2021/04/12 04:50:34;;;;;;;5.72;5.10;;;5.60;59.70;;;;;;1492911;39;20048;-58
2021/04/12 04:52:04;;;;;;;5.00;4.40;;;5.60;59.80;;;;;;1497327;39;20043;-59
2021/04/12 04:53:50;;;;;;;5.57;5.03;;;5.50;59.60;;;;;;1497554;39;20027;-59
2021/04/12 04:55:27;;;;;;;4.90;4.40;;;5.50;59.70;;;;;;1495166;39;20491;-59
2021/04/12 04:56:57;;;;;;;5.07;4.57;;;5.50;59.70;;;;;;1497083;39;20087;-59
2021/04/12 04:58:45;;;;;;;7.43;4.90;;;5.50;59.70;;;;;;1498696;39;20063;-59
2021/04/12 05:00:09;;;;;;;6.43;4.75;;;5.50;59.80;;;;;;1494477;39;20035;-59
2021/04/12 05:01:57;;;;;;;4.97;4.55;;;5.50;59.70;;;;;;1495546;39;20046;-58
2021/04/12 05:03:53;;;;;;;5.07;4.57;;;5.50;59.90;;;;;;1497062;39;20038;-59
2021/04/12 05:05:29;;;;;;;5.40;4.80;;;5.50;60.00;;;;;;1498709;39;20059;-59
2021/04/12 05:07:11;;;;;;;5.20;4.80;;;5.50;59.70;;;;;;1495528;39;20027;-59
2021/04/12 05:08:59;;;;;;;6.20;4.80;;;5.40;60.00;;;;;;1498324;39;20375;-59
2021/04/12 05:10:54;;;;;;;5.57;5.00;;;5.40;60.70;;;;;;1494104;39;20042;-59
2021/04/12 05:12:33;;;;;;;4.97;4.47;;;5.40;60.20;;;;;;1497857;39;20035;-60
2021/04/12 05:14:12;;;;;;;5.38;4.93;;;5.40;60.10;;;;;;1495669;39;20034;-60
2021/04/12 05:16:14;;;;;;;6.93;4.97;;;5.40;59.90;;;;;;1497199;39;20111;-59
2021/04/12 05:17:44;;;;;;;5.38;4.88;;;5.40;60.40;;;;;;1494710;39;20020;-60
2021/04/12 05:19:42;;;;;;;5.78;5.03;;;5.40;60.10;;;;;;1494681;39;20034;-59
2021/04/12 05:21:31;;;;;;;6.20;4.85;;;5.40;60.50;;;;;;1496265;39;20046;-59
2021/04/12 05:23:23;;;;;;;5.63;4.78;;;5.40;60.60;;;;;;1494631;39;20031;-60
2021/04/12 05:25:11;;;;;;;5.35;4.80;;;5.40;60.60;;;;;;1494534;39;20372;-59
2021/04/12 05:26:42;;;;;;;7.43;5.63;;;5.40;60.70;;;;;;1495512;39;20086;-59
2021/04/12 05:28:38;;;;;;;6.10;5.30;;;5.40;60.60;;;;;;1496409;39;20269;-60
2021/04/12 05:30:23;;;;;;;7.93;5.10;;;5.40;61.30;;;;;;1479938;40;20371;-59
2021/04/12 05:31:56;;;;;;;5.72;5.22;;;5.50;61.10;;;;;;1479852;39;20772;-59
2021/04/12 05:33:36;;;;;;;5.82;5.32;;;5.50;61.10;;;;;;1498629;39;20096;-60
2021/04/12 05:35:47;;;;;;;7.82;5.63;;;5.50;61.50;;;;;;1494539;39;20111;-60
2021/04/12 05:37:35;;;;;;;5.50;4.80;;;5.50;61.70;;;;;;1493581;39;20687;-59
2021/04/12 05:39:15;;;;;;;5.88;5.18;;;5.60;61.80;;;;;;1495308;39;20034;-59
2021/04/12 05:41:04;;;;;;;6.07;5.22;;;5.60;62.00;;;;;;1495735;39;20045;-60
2021/04/12 05:42:39;;;;;;;5.93;5.32;;;5.70;61.90;;;;;;1495482;39;20359;-59
2021/04/12 05:44:18;;;;;;;6.32;5.03;;;5.70;61.80;;;;;;1494444;39;20023;-59
2021/04/12 05:45:39;;;;;;;8.60;5.93;;;5.70;62.00;;;;;;1497786;39;20032;-59
2021/04/12 05:47:34;;;;;;;7.78;5.13;;;5.70;61.70;;;;;;1498696;39;20045;-59
2021/04/12 05:49:00;;;;;;;6.30;5.70;;;5.80;62.10;;;;;;1495977;39;20042;-60
2021/04/12 05:50:30;;;;;;;6.43;5.47;;;5.80;61.80;;;;;;1499661;39;20456;-60
2021/04/12 05:51:57;;;;;;;5.70;5.10;;;5.80;62.30;;;;;;1493820;39;20351;-59
2021/04/12 05:53:40;;;;;;;5.70;5.07;;;5.90;62.50;;;;;;1496817;39;20027;-60
2021/04/12 05:55:25;;;;;;;6.22;5.57;;;5.90;62.60;;;;;;1497358;39;20090;-60
2021/04/12 05:57:23;;;;;;;5.95;5.05;;;6.00;62.60;;;;;;1497993;39;20035;-59
2021/04/12 05:58:59;;;;;;;7.35;5.22;;;6.00;62.90;;;;;;1497607;39;20042;-60
2021/04/12 06:00:31;;;;;;;5.80;5.30;;;6.10;62.70;;;;;;1497586;39;20073;-59
2021/04/12 06:02:29;;;;;;;6.35;5.60;;;6.10;62.70;;;;;;1497224;39;20027;-59
2021/04/12 06:04:14;;;;;;;6.85;5.50;;;6.10;62.70;;;;;;1496329;39;20041;-60
2021/04/12 06:05:59;;;;;;;9.05;5.85;;;6.20;62.40;;;;;;1496005;39;20039;-60
2021/04/12 06:07:39;;;;;;;6.57;5.70;;;6.20;62.60;;;;;;1496868;39;20039;-59
2021/04/12 06:09:23;;;;;;;6.88;5.60;;;6.20;62.30;;;;;;1496130;39;20034;-60
2021/04/12 06:10:55;;;;;;;6.15;5.57;;;6.20;62.40;;;;;;1497626;39;20046;-60
2021/04/12 06:13:00;;;;;;;7.43;6.07;;;6.30;62.50;;;;;;1497670;39;20023;-60
2021/04/12 06:14:58;;;;;;;6.50;5.38;;;6.30;62.70;;;;;;1486394;39;20039;-59
2021/04/12 06:16:55;;;;;;;7.07;6.13;;;6.30;62.50;;;;;;1496469;39;20034;-60
2021/04/12 06:18:35;;;;;;;7.00;6.30;;;6.30;62.60;;;;;;1498170;39;20066;-60
2021/04/12 06:20:14;;;;;;;7.22;6.53;;;6.40;62.30;;;;;;1497062;39;20082;-60
2021/04/12 06:22:11;;;;;;;7.82;7.13;;;6.40;62.60;;;;;;1494956;39;20127;-60
2021/04/12 06:23:50;;;;;;;8.65;7.10;;;6.40;62.70;;;;;;1498013;39;20377;-59
2021/04/12 06:25:48;;;;;;;9.23;7.28;;;6.40;62.50;;;;;;1495162;39;20049;-60
2021/04/12 06:27:24;;;;;;;8.80;7.00;;;6.50;62.60;;;;;;1495353;39;20127;-60
2021/04/12 06:29:06;;;;;;;8.95;7.40;;;6.50;62.60;;;;;;1496756;39;20046;-59
2021/04/12 06:30:45;;;;;;;9.35;7.03;;;6.50;62.60;;;;;;1494401;39;20038;-60
2021/04/12 06:32:24;;;;;;;7.97;6.75;;;6.50;62.60;;;;;;1497273;39;20100;-60
2021/04/12 06:34:07;;;;;;;8.15;7.10;;;6.60;62.60;;;;;;1494744;39;20042;-60
2021/04/12 06:35:40;;;;;;;8.48;6.78;;;6.60;62.90;;;;;;1496246;39;20349;-60
2021/04/12 06:37:17;;;;;;;7.82;7.05;;;6.60;62.80;;;;;;1495915;39;20054;-60
2021/04/12 06:39:07;;;;;;;7.78;6.35;;;6.70;62.80;;;;;;1493703;39;20348;-60
2021/04/12 06:41:06;;;;;;;8.48;7.25;;;6.70;62.80;;;;;;1496966;39;20059;-59
2021/04/12 06:42:57;;;;;;;7.18;6.47;;;6.80;62.90;;;;;;1496909;39;20063;-59
2021/04/12 06:45:00;;;;;;;8.43;6.50;;;6.80;62.60;;;;;;1495727;39;20030;-59
2021/04/12 06:46:43;;;;;;;6.90;6.07;;;6.80;62.60;;;;;;1497733;39;20440;-60
2021/04/12 06:48:23;;;;;;;8.80;6.28;;;6.90;62.50;;;;;;1497221;39;20047;-60
2021/04/12 06:50:06;;;;;;;8.75;6.70;;;6.90;62.40;;;;;;1497210;39;20027;-60
2021/04/12 06:51:50;;;;;;;7.50;6.78;;;7.00;62.50;;;;;;1497385;39;20091;-60
2021/04/12 06:53:45;;;;;;;7.20;6.53;;;7.00;62.50;;;;;;1497762;39;20345;-59
2021/04/12 06:55:23;;;;;;;7.18;6.28;;;7.00;62.40;;;;;;1491621;39;20034;-59
2021/04/12 06:57:03;;;;;;;10.10;6.75;;;7.10;62.30;;;;;;1496150;39;20340;-60
2021/04/12 06:58:45;;;;;;;6.75;6.10;;;7.10;62.30;;;;;;1496698;39;20031;-60
2021/04/12 07:00:37;;;;;;;7.68;6.35;;;7.10;62.10;;;;;;1497505;39;20037;-60
2021/04/12 07:02:11;;;;;;;7.22;6.28;;;7.10;62.00;;;;;;1494951;39;20020;-59
2021/04/12 07:04:10;;;;;;;7.35;6.63;;;7.20;62.00;;;;;;1494931;39;20063;-60
2021/04/12 07:06:08;;;;;;;9.68;6.90;;;7.20;62.10;;;;;;1497686;39;20050;-59
2021/04/12 07:07:44;;;;;;;8.20;6.53;;;7.20;61.90;;;;;;1494974;39;20030;-59
2021/04/12 07:09:42;;;;;;;7.57;6.80;;;7.30;61.80;;;;;;1491859;39;20032;-60
2021/04/12 07:11:16;;;;;;;7.50;6.60;;;7.30;61.90;;;;;;1495490;39;20026;-60
2021/04/12 07:13:04;;;;;;;8.20;7.30;;;7.30;61.80;;;;;;1495505;39;20440;-60
2021/04/12 07:14:38;;;;;;;7.45;6.85;;;7.30;61.90;;;;;;1497656;39;20039;-60
2021/04/12 07:16:32;;;;;;;7.22;6.53;;;7.30;61.80;;;;;;1497461;39;20039;-60
2021/04/12 07:18:41;;;;;;;7.93;7.00;;;7.30;62.00;;;;;;1494033;39;20108;-59
2021/04/12 07:20:30;;;;;;;6.75;6.05;;;7.30;62.00;;;;;;1493020;39;20042;-59
2021/04/12 07:22:28;;;;;;;11.57;7.50;;;7.40;62.20;;;;;;1495417;39;20035;-58
2021/04/12 07:24:12;;;;;;;8.60;7.50;;;7.40;62.10;;;;;;1493462;39;20039;-58
2021/04/12 07:25:57;;;;;;;9.75;7.88;;;7.40;61.90;;;;;;1496141;39;20299;-58
2021/04/12 07:27:42;;;;;;;7.95;7.15;;;7.40;62.10;;;;;;1497272;39;20123;-60
2021/04/12 07:29:29;;;;;;;8.30;7.45;;;7.40;61.90;;;;;;1494861;39;20039;-60
2021/04/12 07:31:16;;;;;;;9.30;7.40;;;7.50;61.90;;;;;;1496789;39;20184;-59
2021/04/12 07:32:43;;;;;;;7.72;6.93;;;7.50;61.90;;;;;;1496479;39;20380;-60
2021/04/12 07:34:32;;;;;;;10.10;8.05;;;7.50;61.80;;;;;;1495898;39;20028;-60
2021/04/12 07:36:11;;;;;;;10.27;7.82;;;7.50;62.00;;;;;;1492931;39;20028;-60
2021/04/12 07:38:09;;;;;;;10.07;7.60;;;7.50;62.10;;;;;;1497486;39;21008;-57
2021/04/12 07:39:57;;;;;;;9.90;7.85;;;7.50;62.10;;;;;;1496681;39;20296;-60
2021/04/12 07:41:27;;;;;;;8.25;7.45;;;7.60;62.30;;;;;;1491261;39;20625;-60
2021/04/12 07:43:08;;;;;;;8.77;7.40;;;7.60;62.50;;;;;;1494145;39;20042;-60
2021/04/12 07:45:18;;;;;;;11.10;7.72;;;7.60;62.60;;;;;;1497099;39;20031;-60
2021/04/12 07:47:18;;;;;;;10.15;6.63;;;7.60;62.80;;;;;;1494801;39;20096;-60
2021/04/12 07:49:23;;;;;;;8.85;7.75;;;7.70;62.80;;;;;;1488711;39;20077;-59
2021/04/12 07:51:21;;;;;;;9.23;6.85;;;7.80;62.70;;;;;;1494949;39;20079;-58
2021/04/12 07:53:24;;;;;;;7.95;7.18;;;7.90;62.80;;;;;;1494089;39;20252;-59
2021/04/12 07:55:02;;;;;;;8.85;6.85;;;7.90;62.60;;;;;;1495303;39;20357;-59
2021/04/12 07:57:07;;;;;;;9.00;7.95;;;7.90;62.40;;;;;;1494130;39;20090;-59
2021/04/12 07:59:03;;;;;;;9.18;7.10;;;8.00;62.10;;;;;;1496957;39;20363;-59
2021/04/12 08:00:55;;;;;;;10.35;7.60;;;8.00;62.00;;;;;;1497137;39;20056;-60
2021/04/12 08:02:43;;;;;;;8.65;7.75;;;8.00;61.70;;;;;;1497465;39;20044;-60
2021/04/12 08:04:23;;;;;;;7.63;6.90;;;8.10;62.10;;;;;;1494984;39;20364;-60
2021/04/12 08:06:00;;;;;;;9.13;7.55;;;8.10;62.10;;;;;;1492133;39;20028;-60
2021/04/12 08:07:51;;;;;;;11.05;7.32;;;8.10;62.10;;;;;;1498135;39;20125;-59
2021/04/12 08:09:33;;;;;;;9.38;7.40;;;8.20;62.20;;;;;;1495293;39;20039;-59
2021/04/12 08:11:29;;;;;;;9.35;7.20;;;8.20;62.10;;;;;;1496921;39;20252;-60
2021/04/12 08:13:03;;;;;;;10.15;7.68;;;8.30;62.00;;;;;;1494235;39;20112;-59
2021/04/12 08:14:54;;;;;;;8.70;7.40;;;8.30;61.80;;;;;;1496186;39;20039;-59
2021/04/12 08:16:48;;;;;;;9.70;7.07;;;8.30;61.70;;;;;;1491544;39;20055;-59
2021/04/12 08:18:32;;;;;;;12.07;7.63;;;8.40;61.70;;;;;;1495863;39;20258;-59
2021/04/12 08:20:12;;;;;;;7.63;6.82;;;8.40;61.50;;;;;;1495920;39;20099;-59
2021/04/12 08:21:57;;;;;;;7.00;6.30;;;8.50;61.50;;;;;;1496475;39;20034;-59
2021/04/12 08:23:38;;;;;;;7.15;6.45;;;8.50;61.40;;;;;;1497821;39;20018;-59
2021/04/12 08:25:32;;;;;;;6.65;6.00;;;8.50;61.40;;;;;;1495561;39;20043;-59
2021/04/12 08:27:24;;;;;;;7.10;5.90;;;8.50;60.90;;;;;;1494619;39;20057;-58
2021/04/12 08:28:59;;;;;;;6.35;5.68;;;8.60;61.00;;;;;;1493930;39;20252;-59
2021/04/12 08:30:38;;;;;;;7.25;5.53;;;8.60;61.10;;;;;;1498627;39;20351;-58
2021/04/12 08:32:29;;;;;;;5.70;5.05;;;8.70;61.00;;;;;;1495496;39;20413;-58
2021/04/12 08:34:24;;;;;;;6.15;4.85;;;8.70;60.80;;;;;;1493845;39;20193;-58
2021/04/12 08:36:21;;;;;;;7.20;5.75;;;8.70;60.70;;;;;;1497246;39;20043;-59
2021/04/12 08:38:13;;;;;;;5.72;5.13;;;8.80;60.50;;;;;;1495246;39;20019;-60
2021/04/12 08:40:12;;;;;;;6.47;5.20;;;8.80;60.60;;;;;;1494125;39;20031;-59
2021/04/12 08:41:49;;;;;;;5.88;4.75;;;8.80;60.60;;;;;;1496915;39;20070;-60
2021/04/12 08:43:15;;;;;;;5.28;4.85;;;8.90;60.70;;;;;;1496322;39;20063;-59
2021/04/12 08:45:02;;;;;;;6.80;5.50;;;8.90;60.50;;;;;;1496515;39;20066;-58
2021/04/12 08:46:37;;;;;;;5.43;5.00;;;8.90;59.90;;;;;;1495357;39;20039;-59
2021/04/12 08:48:36;;;;;;;7.40;5.07;;;8.90;60.00;;;;;;1494291;39;20420;-59
2021/04/12 08:50:19;;;;;;;6.35;5.32;;;8.90;59.70;;;;;;1496153;39;20084;-59
2021/04/12 08:52:18;;;;;;;5.18;4.70;;;9.00;59.90;;;;;;1495422;39;20059;-59
2021/04/12 08:54:11;;;;;;;5.47;4.65;;;9.00;59.70;;;;;;1494284;39;20282;-59
2021/04/12 08:55:48;;;;;;;6.93;4.55;;;9.00;59.90;;;;;;1490340;39;20027;-60
2021/04/12 08:58:00;;;;;;;6.72;4.60;;;9.00;59.90;;;;;;1496906;39;20038;-60
2021/04/12 09:00:11;;;;;;;5.20;4.63;;;9.10;60.20;;;;;;1494018;39;20057;-60
2021/04/12 09:02:08;;;;;;;7.57;4.20;;;9.20;60.00;;;;;;1472784;40;20310;-60
2021/04/12 09:03:35;;;;;;;4.45;3.70;;;9.20;60.30;;;;;;1471888;40;20025;-60
2021/04/12 09:05:20;;;;;;;5.68;4.38;;;9.30;60.80;;;;;;1473595;40;20742;-59
2021/04/12 09:07:27;;;;;;;4.97;4.22;;;9.40;61.30;;;;;;1484019;39;20027;-60
2021/04/12 09:09:26;;;;;;;6.05;3.58;;;9.60;61.40;;;;;;1490106;39;20092;-59